createdAt,value
2018-08-09T00:01:38.410Z,20.30
2018-08-09T00:04:06.549Z,20.10
2018-08-09T00:06:34.848Z,20.20
2018-08-09T00:09:03.120Z,20.20
2018-08-09T00:11:31.389Z,20.20
2018-08-09T00:13:59.830Z,20.20
2018-08-09T00:16:28.079Z,20.20
2018-08-09T00:18:56.331Z,20.30
2018-08-09T00:21:24.592Z,20.20
2018-08-09T00:23:52.921Z,20.20
2018-08-09T00:26:21.055Z,20.10
2018-08-09T00:28:49.312Z,20.00
2018-08-09T00:31:17.562Z,19.80
2018-08-09T00:33:45.839Z,19.80
2018-08-09T00:36:14.077Z,19.80
2018-08-09T00:38:42.504Z,19.80
2018-08-09T00:41:10.727Z,19.80
2018-08-09T00:43:39.065Z,19.90
2018-08-09T00:46:07.319Z,19.90
2018-08-09T00:48:35.563Z,20.10
2018-08-09T00:51:03.813Z,20.10
2018-08-09T00:53:32.041Z,20.10
2018-08-09T00:56:00.266Z,20.10
2018-08-09T00:58:28.614Z,20.00
2018-08-09T01:00:56.870Z,20.00
2018-08-09T01:03:25.202Z,20.10
2018-08-09T01:05:53.441Z,20.20
2018-08-09T01:08:21.652Z,20.20
2018-08-09T01:10:49.922Z,20.30
2018-08-09T01:13:18.188Z,20.30
2018-08-09T01:15:46.414Z,20.30
2018-08-09T01:18:14.675Z,20.20
2018-08-09T01:20:42.925Z,20.10
2018-08-09T01:23:11.186Z,20.10
2018-08-09T01:25:39.456Z,20.10
2018-08-09T01:28:07.672Z,20.10
2018-08-09T01:30:35.900Z,19.90
2018-08-09T01:33:04.155Z,19.70
2018-08-09T01:35:32.416Z,19.70
2018-08-09T01:38:00.741Z,19.70
2018-08-09T01:40:29.025Z,19.70
2018-08-09T01:43:08.602Z,19.60
2018-08-09T01:45:36.810Z,19.60
2018-08-09T01:48:05.098Z,19.70
2018-08-09T01:50:33.335Z,19.60
2018-08-09T01:53:01.580Z,19.70
2018-08-09T01:55:29.804Z,19.50
2018-08-09T01:57:58.069Z,19.40
2018-08-09T02:00:26.360Z,19.10
2018-08-09T02:02:54.624Z,19.00
2018-08-09T02:05:22.910Z,19.20
2018-08-09T02:07:51.130Z,19.30
2018-08-09T02:10:19.420Z,19.40
2018-08-09T02:12:47.890Z,19.20
2018-08-09T02:15:16.137Z,19.20
2018-08-09T02:17:44.416Z,19.30
2018-08-09T02:20:12.676Z,19.30
2018-08-09T02:22:40.979Z,19.40
2018-08-09T02:25:09.280Z,19.40
2018-08-09T02:27:37.529Z,19.40
2018-08-09T02:30:05.843Z,19.40
2018-08-09T02:32:34.060Z,19.40
2018-08-09T02:35:02.337Z,19.40
2018-08-09T02:37:30.546Z,19.20
2018-08-09T02:39:58.781Z,19.00
2018-08-09T02:42:27.026Z,19.10
2018-08-09T02:44:55.258Z,19.10
2018-08-09T02:47:23.483Z,19.00
2018-08-09T02:49:51.743Z,18.90
2018-08-09T02:52:19.952Z,19.00
2018-08-09T02:54:48.208Z,18.90
2018-08-09T02:57:16.641Z,18.70
2018-08-09T02:59:44.906Z,18.70
2018-08-09T03:02:13.319Z,18.80
2018-08-09T03:04:41.563Z,18.90
2018-08-09T03:07:09.826Z,18.90
2018-08-09T03:09:38.113Z,19.00
2018-08-09T03:12:06.350Z,19.00
2018-08-09T03:14:34.617Z,18.90
2018-08-09T03:17:02.851Z,18.90
2018-08-09T03:19:31.087Z,18.80
2018-08-09T03:21:59.353Z,18.80
2018-08-09T03:24:27.595Z,18.70
2018-08-09T03:26:55.853Z,18.70
2018-08-09T03:29:24.133Z,18.60
2018-08-09T03:31:52.430Z,18.60
2018-08-09T03:34:20.644Z,18.50
2018-08-09T03:36:48.937Z,18.30
2018-08-09T03:39:17.205Z,18.40
2018-08-09T03:41:45.475Z,18.30
2018-08-09T03:44:13.718Z,18.30
2018-08-09T03:46:41.974Z,18.20
2018-08-09T03:49:10.225Z,18.00
2018-08-09T03:51:38.483Z,17.70
2018-08-09T03:54:06.732Z,17.60
2018-08-09T03:56:34.961Z,17.60
2018-08-09T03:59:03.276Z,17.80
2018-08-09T04:01:31.480Z,18.00
2018-08-09T04:03:59.784Z,18.20
2018-08-09T04:06:28.080Z,18.40
2018-08-09T04:08:56.299Z,18.60
2018-08-09T04:11:24.553Z,18.70
2018-08-09T04:13:52.819Z,18.70
2018-08-09T04:16:21.040Z,18.80
2018-08-09T04:18:49.552Z,18.80
2018-08-09T04:21:17.798Z,18.90
2018-08-09T04:23:46.069Z,18.90
2018-08-09T04:26:14.325Z,18.90
2018-08-09T04:28:42.548Z,18.90
2018-08-09T04:31:10.823Z,18.90
2018-08-09T04:33:39.034Z,19.00
2018-08-09T04:36:07.252Z,19.10
2018-08-09T04:38:35.482Z,19.00
2018-08-09T04:41:03.707Z,19.00
2018-08-09T04:43:31.955Z,19.00
2018-08-09T04:46:00.172Z,19.20
2018-08-09T04:48:28.422Z,19.10
2018-08-09T04:50:56.767Z,18.90
2018-08-09T04:53:25.013Z,18.80
2018-08-09T04:55:53.382Z,19.00
2018-08-09T04:58:21.636Z,19.10
2018-08-09T05:00:49.831Z,19.10
2018-08-09T05:03:18.116Z,19.20
2018-08-09T05:05:46.400Z,19.20
2018-08-09T05:08:14.639Z,19.20
2018-08-09T05:10:42.879Z,19.30
2018-08-09T05:13:11.098Z,19.40
2018-08-09T05:15:39.372Z,19.40
2018-08-09T05:18:07.717Z,19.40
2018-08-09T05:20:35.947Z,19.50
2018-08-09T05:23:04.236Z,19.50
2018-08-09T05:25:32.396Z,19.60
2018-08-09T05:28:00.662Z,19.70
2018-08-09T05:30:29.130Z,19.70
2018-08-09T05:32:57.420Z,19.60
2018-08-09T05:35:26.096Z,19.50
2018-08-09T05:37:54.382Z,19.60
2018-08-09T05:40:22.573Z,19.60
2018-08-09T05:42:50.814Z,19.60
2018-08-09T05:45:19.070Z,19.60
2018-08-09T05:47:47.303Z,19.50
2018-08-09T05:50:15.533Z,19.70
2018-08-09T05:52:43.775Z,20.00
2018-08-09T05:55:11.963Z,20.20
2018-08-09T05:57:40.293Z,20.20
2018-08-09T06:00:08.771Z,19.90
2018-08-09T06:02:37.347Z,19.70
2018-08-09T06:05:06.115Z,19.70
2018-08-09T06:07:34.421Z,19.90
2018-08-09T06:10:02.732Z,20.20
2018-08-09T06:12:31.570Z,20.20
2018-08-09T06:15:00.137Z,20.20
2018-08-09T06:17:28.337Z,20.50
2018-08-09T06:19:56.619Z,20.90
2018-08-09T06:22:24.857Z,21.20
2018-08-09T06:24:53.088Z,21.20
2018-08-09T06:27:21.367Z,20.90
2018-08-09T06:29:49.872Z,20.90
2018-08-09T06:32:18.205Z,21.30
2018-08-09T06:34:46.520Z,21.40
2018-08-09T06:37:14.848Z,21.50
2018-08-09T06:39:43.098Z,21.30
2018-08-09T06:42:11.826Z,21.50
2018-08-09T06:44:40.069Z,21.60
2018-08-09T06:47:08.363Z,21.60
2018-08-09T06:49:36.637Z,21.40
2018-08-09T06:52:04.898Z,21.20
2018-08-09T06:54:33.110Z,20.80
2018-08-09T06:57:01.381Z,20.50
2018-08-09T06:59:29.640Z,20.70
2018-08-09T07:01:57.917Z,21.00
2018-08-09T07:04:26.153Z,21.00
2018-08-09T07:06:54.426Z,21.00
2018-08-09T07:09:22.669Z,20.90
2018-08-09T07:11:50.878Z,21.10
2018-08-09T07:14:19.092Z,21.50
2018-08-09T07:16:47.334Z,21.70
2018-08-09T07:19:15.541Z,22.00
2018-08-09T07:21:43.786Z,22.30
2018-08-09T07:24:12.005Z,22.70
2018-08-09T07:26:40.769Z,23.00
2018-08-09T07:29:09.064Z,23.50
2018-08-09T07:31:37.272Z,23.70
2018-08-09T07:34:05.525Z,23.50
2018-08-09T07:36:33.772Z,23.00
2018-08-09T07:39:01.973Z,23.10
2018-08-09T07:41:30.181Z,23.10
2018-08-09T07:43:58.389Z,23.10
2018-08-09T07:46:26.617Z,23.40
2018-08-09T07:48:54.844Z,23.20
2018-08-09T07:51:23.090Z,23.10
2018-08-09T07:53:51.300Z,23.10
2018-08-09T07:56:19.533Z,22.60
2018-08-09T07:58:47.852Z,22.60
2018-08-09T08:01:16.072Z,22.70
2018-08-09T08:03:44.301Z,22.60
2018-08-09T08:06:12.604Z,22.70
2018-08-09T08:08:40.809Z,22.80
2018-08-09T08:11:09.329Z,23.00
2018-08-09T08:13:37.580Z,23.20
2018-08-09T08:16:06.549Z,23.60
2018-08-09T08:18:34.878Z,23.70
2018-08-09T08:21:03.129Z,23.90
2018-08-09T08:23:31.366Z,23.90
2018-08-09T08:25:59.573Z,29.20
2018-08-09T08:28:27.800Z,30.10
2018-08-09T08:30:56.076Z,30.60
2018-08-09T08:33:24.270Z,30.30
2018-08-09T08:35:52.519Z,29.70
2018-08-09T08:38:20.976Z,29.10
2018-08-09T08:40:49.201Z,33.40
2018-08-09T08:43:17.462Z,32.90
2018-08-09T08:45:45.702Z,35.00
2018-08-09T08:48:13.900Z,36.60
2018-08-09T08:50:42.281Z,37.40
2018-08-09T08:53:10.542Z,36.50
2018-08-09T08:55:38.628Z,36.40
2018-08-09T08:58:06.926Z,37.50
2018-08-09T09:00:35.170Z,38.40
2018-08-09T09:03:03.450Z,40.50
2018-08-09T09:05:31.648Z,39.70
2018-08-09T09:07:59.895Z,39.20
2018-08-09T09:10:28.160Z,41.40
2018-08-09T09:12:56.402Z,41.30
2018-08-09T09:15:24.692Z,38.50
2018-08-09T09:17:52.918Z,41.10
2018-08-09T09:20:21.428Z,40.80
2018-08-09T09:22:49.646Z,36.50
2018-08-09T09:25:18.097Z,34.10
2018-08-09T09:27:46.317Z,34.10
2018-08-09T09:30:16.637Z,33.80
2018-08-09T09:32:45.223Z,35.90
2018-08-09T09:35:13.480Z,38.70
2018-08-09T09:37:42.151Z,40.80
2018-08-09T09:40:10.733Z,41.90
2018-08-09T09:42:39.597Z,43.50
2018-08-09T09:45:08.956Z,44.70
2018-08-09T09:47:37.161Z,40.70
2018-08-09T09:50:06.115Z,40.80
2018-08-09T09:52:34.297Z,40.20
2018-08-09T09:55:02.623Z,38.70
2018-08-09T09:57:30.836Z,37.80
2018-08-09T09:59:59.040Z,39.30
2018-08-09T10:02:27.255Z,41.90
2018-08-09T10:04:55.582Z,41.60
2018-08-09T10:07:23.810Z,43.10
2018-08-09T10:09:52.047Z,39.40
2018-08-09T10:12:20.293Z,38.30
2018-08-09T10:14:48.555Z,42.10
2018-08-09T10:17:16.752Z,43.30
2018-08-09T10:19:44.973Z,45.40
2018-08-09T10:22:13.421Z,44.90
2018-08-09T10:24:41.667Z,41.70
2018-08-09T10:27:09.883Z,42.30
2018-08-09T10:29:38.149Z,43.00
2018-08-09T10:32:06.377Z,41.80
2018-08-09T10:34:34.598Z,44.80
2018-08-09T10:37:02.852Z,41.60
2018-08-09T10:39:31.086Z,37.80
2018-08-09T10:41:59.305Z,36.00
2018-08-09T10:44:28.251Z,36.10
2018-08-09T10:46:56.464Z,36.10
2018-08-09T10:49:24.700Z,37.30
2018-08-09T10:51:52.939Z,36.30
2018-08-09T10:54:21.187Z,36.20
2018-08-09T10:56:49.401Z,39.60
2018-08-09T10:59:17.664Z,40.00
2018-08-09T11:01:45.944Z,36.40
2018-08-09T11:04:14.112Z,35.90
2018-08-09T11:06:42.356Z,34.00
2018-08-09T11:09:11.799Z,31.90
2018-08-09T11:11:40.044Z,31.30
2018-08-09T11:14:08.549Z,31.10
2018-08-09T11:16:36.776Z,31.80
2018-08-09T11:19:05.163Z,32.00
2018-08-09T11:21:33.381Z,32.30
2018-08-09T11:24:01.843Z,31.80
2018-08-09T11:26:30.072Z,31.60
2018-08-09T11:28:58.309Z,30.90
2018-08-09T11:31:26.753Z,30.70
2018-08-09T11:33:55.076Z,31.40
2018-08-09T11:36:23.275Z,31.00
2018-08-09T11:38:51.957Z,31.50
2018-08-09T11:41:20.136Z,31.90
2018-08-09T11:43:48.369Z,31.50
2018-08-09T11:46:16.596Z,31.00
2018-08-09T11:48:44.829Z,30.80
2018-08-09T11:51:14.013Z,30.70
2018-08-09T11:53:42.216Z,30.80
2018-08-09T11:56:10.508Z,30.40
2018-08-09T11:58:38.718Z,30.40
2018-08-09T12:01:07.419Z,30.80
2018-08-09T12:03:35.656Z,31.20
2018-08-09T12:06:04.944Z,31.70
2018-08-09T12:08:33.164Z,32.30
2018-08-09T12:11:01.438Z,32.90
2018-08-09T12:13:29.725Z,32.20
2018-08-09T12:15:57.894Z,31.90
2018-08-09T12:18:26.176Z,32.10
2018-08-09T12:20:55.262Z,32.50
2018-08-09T12:23:30.013Z,33.10
2018-08-09T12:25:58.357Z,32.80
2018-08-09T12:28:26.617Z,32.70
2018-08-09T12:30:54.876Z,32.90
2018-08-09T12:33:23.121Z,32.80
2018-08-09T12:35:51.727Z,32.80
2018-08-09T12:38:19.969Z,32.20
2018-08-09T12:40:48.227Z,31.50
2018-08-09T12:43:16.433Z,31.40
2018-08-09T12:45:44.681Z,31.60
2018-08-09T12:48:12.922Z,31.40
2018-08-09T12:50:41.393Z,31.70
2018-08-09T12:53:09.603Z,31.80
2018-08-09T12:55:37.851Z,31.50
2018-08-09T12:58:06.200Z,31.60
2018-08-09T13:00:34.516Z,31.50
2018-08-09T13:03:02.734Z,31.40
2018-08-09T13:05:30.990Z,31.60
2018-08-09T13:07:59.236Z,31.40
2018-08-09T13:10:27.479Z,31.20
2018-08-09T13:12:55.723Z,30.90
2018-08-09T13:15:24.318Z,30.80
2018-08-09T13:17:52.592Z,31.00
2018-08-09T13:20:21.440Z,31.00
2018-08-09T13:22:51.048Z,30.90
2018-08-09T13:25:19.330Z,30.80
2018-08-09T13:27:47.925Z,30.90
2018-08-09T13:30:16.171Z,30.80
2018-08-09T13:32:44.997Z,30.70
2018-08-09T13:35:13.273Z,30.30
2018-08-09T13:37:41.514Z,30.10
2018-08-09T13:40:10.571Z,30.00
2018-08-09T13:42:39.650Z,29.90
2018-08-09T13:45:09.804Z,29.90
2018-08-09T13:47:38.411Z,29.80
2018-08-09T13:50:07.308Z,29.80
2018-08-09T13:52:35.630Z,29.70
2018-08-09T13:55:04.296Z,29.70
2018-08-09T13:57:32.568Z,29.80
2018-08-09T14:00:01.170Z,29.50
2018-08-09T14:02:29.735Z,29.10
2018-08-09T14:04:57.934Z,28.30
2018-08-09T14:07:26.192Z,27.80
2018-08-09T14:09:54.401Z,26.40
2018-08-09T14:12:22.617Z,26.00
2018-08-09T14:14:50.877Z,25.10
2018-08-09T14:17:19.126Z,24.70
2018-08-09T14:19:47.384Z,24.10
2018-08-09T14:22:15.640Z,23.90
2018-08-09T14:24:44.056Z,23.50
2018-08-09T14:27:12.241Z,22.70
2018-08-09T14:29:41.060Z,22.40
2018-08-09T14:32:09.311Z,22.20
2018-08-09T14:34:37.532Z,21.90
2018-08-09T14:37:07.331Z,21.70
2018-08-09T14:39:35.542Z,21.30
2018-08-09T14:42:03.926Z,20.70
2018-08-09T14:44:32.086Z,20.40
2018-08-09T14:47:00.448Z,20.40
2018-08-09T14:49:28.650Z,20.50
2018-08-09T14:51:56.865Z,20.70
2018-08-09T14:54:25.108Z,20.80
2018-08-09T14:56:53.333Z,20.80
2018-08-09T14:59:21.649Z,20.80
2018-08-09T15:01:49.864Z,21.00
2018-08-09T15:04:18.096Z,21.00
2018-08-09T15:06:46.685Z,21.10
2018-08-09T15:09:15.013Z,21.10
2018-08-09T15:11:43.286Z,21.20
2018-08-09T15:14:11.699Z,21.40
2018-08-09T15:16:40.118Z,21.70
2018-08-09T15:19:08.416Z,22.00
2018-08-09T15:21:36.633Z,22.30
2018-08-09T15:24:04.912Z,22.10
2018-08-09T15:26:33.114Z,22.00
2018-08-09T15:29:01.604Z,22.10
2018-08-09T15:31:29.837Z,22.00
2018-08-09T15:33:58.036Z,22.30
2018-08-09T15:36:26.241Z,22.30
2018-08-09T15:38:54.504Z,22.50
2018-08-09T15:41:22.777Z,22.80
2018-08-09T15:43:51.192Z,23.20
2018-08-09T15:46:19.483Z,23.60
2018-08-09T15:48:47.691Z,23.90
2018-08-09T15:51:16.050Z,24.10
2018-08-09T15:53:44.716Z,24.20
2018-08-09T15:56:13.432Z,23.90
2018-08-09T15:58:41.718Z,24.00
2018-08-09T16:01:10.196Z,24.20
2018-08-09T16:03:38.412Z,24.50
2018-08-09T16:06:06.744Z,24.60
2018-08-09T16:08:36.082Z,24.80
2018-08-09T16:11:04.353Z,25.00
2018-08-09T16:13:32.711Z,25.00
2018-08-09T16:16:01.251Z,25.20
2018-08-09T16:18:30.074Z,25.20
2018-08-09T16:20:58.448Z,25.30
2018-08-09T16:23:27.567Z,25.30
2018-08-09T16:25:56.067Z,25.20
2018-08-09T16:28:24.813Z,25.20
2018-08-09T16:30:53.777Z,25.10
2018-08-09T16:33:22.960Z,25.20
2018-08-09T16:35:51.265Z,25.10
2018-08-09T16:38:19.692Z,25.20
2018-08-09T16:40:47.899Z,25.10
2018-08-09T16:43:16.426Z,25.00
2018-08-09T16:45:44.665Z,24.70
2018-08-09T16:48:12.893Z,24.60
2018-08-09T16:50:41.125Z,24.80
2018-08-09T16:53:09.380Z,24.80
2018-08-09T16:55:37.625Z,24.80
2018-08-09T16:58:06.301Z,24.80
2018-08-09T17:00:34.531Z,24.70
2018-08-09T17:03:02.786Z,24.70
2018-08-09T17:05:31.156Z,24.70
2018-08-09T17:07:59.420Z,24.70
2018-08-09T17:10:27.689Z,24.70
2018-08-09T17:12:55.959Z,24.80
2018-08-09T17:15:26.337Z,24.70
2018-08-09T17:17:55.040Z,24.60
2018-08-09T17:20:27.220Z,24.50
2018-08-09T17:22:55.756Z,24.60
2018-08-09T17:25:24.968Z,24.50
2018-08-09T17:27:53.261Z,24.50
2018-08-09T17:30:23.234Z,24.50
2018-08-09T17:32:51.461Z,24.50
2018-08-09T17:35:20.213Z,24.50
2018-08-09T17:37:48.506Z,24.50
2018-08-09T17:40:19.715Z,24.50
2018-08-09T17:42:49.052Z,24.50
2018-08-09T17:45:17.891Z,24.40
2018-08-09T17:47:46.268Z,24.40
2018-08-09T17:50:15.436Z,24.40
2018-08-09T17:52:47.145Z,24.40
2018-08-09T17:55:15.964Z,24.40
2018-08-09T17:57:45.039Z,24.30
2018-08-09T18:00:16.479Z,24.30
2018-08-09T18:02:44.695Z,24.20
2018-08-09T18:05:12.932Z,24.10
2018-08-09T18:07:41.507Z,24.10
2018-08-09T18:10:12.200Z,24.00
2018-08-09T18:12:40.651Z,24.00
2018-08-09T18:15:08.943Z,24.00
2018-08-09T18:17:37.522Z,24.00
2018-08-09T18:20:10.225Z,23.90
2018-08-09T18:22:40.596Z,23.80
2018-08-09T18:25:11.044Z,23.80
2018-08-09T18:27:39.384Z,23.70
2018-08-09T18:30:10.916Z,23.70
2018-08-09T18:32:40.007Z,23.70
2018-08-09T18:35:09.193Z,23.60
2018-08-09T18:37:37.716Z,23.50
2018-08-09T18:40:08.106Z,23.50
2018-08-09T18:42:36.349Z,23.50
2018-08-09T18:45:06.628Z,23.50
2018-08-09T18:47:34.936Z,23.40
2018-08-09T18:50:04.853Z,23.50
2018-08-09T18:52:35.784Z,23.60
2018-08-09T18:55:04.476Z,23.60
2018-08-09T18:57:32.706Z,23.60
2018-08-09T19:00:01.075Z,23.60
2018-08-09T19:02:29.446Z,23.70
2018-08-09T19:04:57.804Z,23.70
2018-08-09T19:07:26.083Z,23.60
2018-08-09T19:09:54.280Z,23.40
2018-08-09T19:12:22.543Z,23.20
2018-08-09T19:14:50.799Z,23.20
2018-08-09T19:17:19.060Z,23.10
2018-08-09T19:19:48.258Z,23.00
2018-08-09T19:22:16.571Z,22.90
2018-08-09T19:24:45.236Z,22.70
2018-08-09T19:27:13.606Z,22.60
2018-08-09T19:29:41.864Z,22.50
2018-08-09T19:32:10.390Z,22.30
2018-08-09T19:34:39.335Z,22.30
2018-08-09T19:37:07.605Z,22.20
2018-08-09T19:39:35.890Z,22.10
2018-08-09T19:42:04.156Z,22.00
2018-08-09T19:44:32.479Z,22.00
2018-08-09T19:47:01.127Z,21.90
2018-08-09T19:49:29.375Z,21.80
2018-08-09T19:51:57.577Z,21.70
2018-08-09T19:54:26.177Z,21.60
2018-08-09T19:56:54.512Z,21.50
2018-08-09T19:59:22.777Z,21.50
2018-08-09T20:01:51.060Z,21.50
2018-08-09T20:04:19.357Z,21.50
2018-08-09T20:06:47.689Z,21.40
2018-08-09T20:09:15.984Z,21.40
2018-08-09T20:11:44.266Z,21.40
2018-08-09T20:14:12.501Z,21.30
2018-08-09T20:16:40.717Z,21.30
2018-08-09T20:19:08.956Z,21.40
2018-08-09T20:21:37.160Z,21.40
2018-08-09T20:24:05.449Z,21.40
2018-08-09T20:26:33.699Z,21.40
2018-08-09T20:29:02.120Z,21.40
2018-08-09T20:31:30.453Z,21.50
2018-08-09T20:33:58.733Z,21.40
2018-08-09T20:36:27.025Z,21.40
2018-08-09T20:38:55.232Z,21.40
2018-08-09T20:41:26.020Z,21.30
2018-08-09T20:43:54.315Z,21.20
2018-08-09T20:46:22.570Z,21.20
2018-08-09T20:48:50.847Z,21.20
2018-08-09T20:51:19.096Z,21.20
2018-08-09T20:53:47.341Z,21.10
2018-08-09T20:56:15.541Z,21.10
2018-08-09T20:58:43.782Z,21.10
2018-08-09T21:01:12.006Z,21.00
2018-08-09T21:03:40.249Z,21.00
2018-08-09T21:06:08.498Z,21.00
2018-08-09T21:08:36.749Z,21.00
2018-08-09T21:11:04.990Z,21.10
2018-08-09T21:13:33.248Z,21.10
2018-08-09T21:16:01.646Z,21.10
2018-08-09T21:18:29.917Z,21.20
2018-08-09T21:20:58.259Z,21.10
2018-08-09T21:23:26.541Z,21.10
2018-08-09T21:25:54.756Z,21.10
2018-08-09T21:28:23.008Z,21.20
2018-08-09T21:30:51.240Z,21.20
2018-08-09T21:33:19.499Z,21.20
2018-08-09T21:35:47.727Z,21.20
2018-08-09T21:38:15.981Z,21.20
2018-08-09T21:40:44.263Z,21.00
2018-08-09T21:43:12.526Z,21.00
2018-08-09T21:45:40.759Z,20.90
2018-08-09T21:48:08.995Z,20.80
2018-08-09T21:50:37.237Z,20.70
2018-08-09T21:53:05.989Z,20.60
2018-08-09T21:55:34.279Z,20.50
2018-08-09T21:58:02.457Z,20.40
2018-08-09T22:00:54.342Z,20.40
2018-08-09T22:03:24.153Z,20.30
2018-08-09T22:05:57.899Z,20.30
2018-08-09T22:08:31.521Z,20.30
2018-08-09T22:11:05.090Z,20.20
2018-08-09T22:13:38.625Z,20.10
2018-08-09T22:16:12.151Z,20.00
2018-08-09T22:18:45.704Z,20.00
2018-08-09T22:21:19.282Z,20.00
2018-08-09T22:23:47.750Z,19.90
2018-08-09T22:26:15.968Z,19.80
2018-08-09T22:28:44.757Z,19.70
2018-08-09T22:31:13.744Z,19.50
2018-08-09T22:33:42.027Z,19.40
2018-08-09T22:36:10.310Z,19.40
2018-08-09T22:38:38.555Z,19.30
2018-08-09T22:41:06.789Z,19.30
2018-08-09T22:43:35.972Z,19.20
2018-08-09T22:46:04.469Z,19.10
2018-08-09T22:48:33.060Z,19.10
2018-08-09T22:51:01.323Z,19.10
2018-08-09T22:53:29.564Z,19.10
2018-08-09T22:58:25.794Z,18.90
2018-08-09T23:00:54.033Z,19.00
2018-08-09T23:03:22.351Z,18.90
2018-08-09T23:05:50.619Z,18.90
2018-08-09T23:08:18.869Z,18.90
2018-08-09T23:10:47.070Z,18.90
2018-08-09T23:13:15.749Z,18.90
2018-08-09T23:15:44.640Z,18.80
2018-08-09T23:18:12.921Z,18.80
2018-08-09T23:20:41.323Z,18.80
2018-08-09T23:23:09.572Z,18.70
2018-08-09T23:25:37.847Z,18.70
2018-08-09T23:28:06.874Z,18.60
2018-08-09T23:30:35.194Z,18.60
2018-08-09T23:33:03.490Z,18.60
2018-08-09T23:35:31.889Z,18.50
2018-08-09T23:38:00.115Z,18.50
2018-08-09T23:40:28.333Z,18.50
2018-08-09T23:42:56.605Z,18.40
2018-08-09T23:45:24.837Z,18.30
2018-08-09T23:47:53.071Z,18.20
2018-08-09T23:50:21.328Z,18.20
2018-08-09T23:52:49.545Z,18.20
2018-08-09T23:55:18.075Z,18.10
2018-08-09T23:57:46.441Z,18.10
